sensor_id;sensor_type;location;lat;lon;timestamp;temperature;humidity
3614;DHT22;1821;50.936;6.854;2022-10-22T00:00:12;14.90;99.90
3614;DHT22;1821;50.936;6.854;2022-10-22T00:00:54;15.00;99.90
3614;DHT22;1821;50.936;6.854;2022-10-22T00:01:36;15.20;99.90
3614;DHT22;1821;50.936;6.854;2022-10-22T00:02:19;14.90;99.90
3614;DHT22;1821;50.936;6.854;2022-10-22T00:03:01;15.40;99.90
3614;DHT22;1821;50.936;6.854;2022-10-22T00:03:43;15.30;99.90
3614;DHT22;1821;50.936;6.854;2022-10-22T00:04:25;15.10;99.90
3614;DHT22;1821;50.936;6.854;2022-10-22T00:05:08;15.50;99.90
3614;DHT22;1821;50.936;6.854;2022-10-22T00:05:50;15.00;99.90
3614;DHT22;1821;50.936;6.854;2022-10-22T00:06:32;15.30;99.90
3614;DHT22;1821;50.936;6.854;2022-10-22T00:07:15;15.20;99.90
3614;DHT22;1821;50.936;6.854;2022-10-22T00:07:57;15.40;99.90
3614;DHT22;1821;50.936;6.854;2022-10-22T00:08:38;15.00;99.90
3614;DHT22;1821;50.936;6.854;2022-10-22T00:09:20;15.10;99.90
3614;DHT22;1821;50.936;6.854;2022-10-22T00:10:04;14.90;99.90
3614;DHT22;1821;50.936;6.854;2022-10-22T00:10:46;14.90;99.90
3614;DHT22;1821;50.936;6.854;2022-10-22T00:11:28;15.30;99.90
3614;DHT22;1821;50.936;6.854;2022-10-22T00:12:10;15.00;99.90
3614;DHT22;1821;50.936;6.854;2022-10-22T00:12:52;15.10;99.90
3614;DHT22;1821;50.936;6.854;2022-10-22T00:13:33;15.00;99.90
3614;DHT22;1821;50.936;6.854;2022-10-22T00:14:15;15.30;99.90
3614;DHT22;1821;50.936;6.854;2022-10-22T00:14:57;15.20;99.90
3614;DHT22;1821;50.936;6.854;2022-10-22T00:15:39;15.30;99.90
3614;DHT22;1821;50.936;6.854;2022-10-22T00:16:21;15.00;99.90
3614;DHT22;1821;50.936;6.854;2022-10-22T00:17:02;15.30;99.90
3614;DHT22;1821;50.936;6.854;2022-10-22T00:17:51;15.30;99.90
3614;DHT22;1821;50.936;6.854;2022-10-22T00:18:32;15.50;99.90
3614;DHT22;1821;50.936;6.854;2022-10-22T00:19:14;15.20;99.90
3614;DHT22;1821;50.936;6.854;2022-10-22T00:19:56;15.40;99.90
3614;DHT22;1821;50.936;6.854;2022-10-22T00:20:38;15.10;99.90
3614;DHT22;1821;50.936;6.854;2022-10-22T00:21:19;15.00;99.90
3614;DHT22;1821;50.936;6.854;2022-10-22T00:22:01;15.10;99.90
3614;DHT22;1821;50.936;6.854;2022-10-22T00:22:46;15.10;99.90
3614;DHT22;1821;50.936;6.854;2022-10-22T00:23:27;15.50;99.90
3614;DHT22;1821;50.936;6.854;2022-10-22T00:24:09;15.10;99.90
3614;DHT22;1821;50.936;6.854;2022-10-22T00:24:51;15.30;99.90
3614;DHT22;1821;50.936;6.854;2022-10-22T00:25:34;15.00;99.90
3614;DHT22;1821;50.936;6.854;2022-10-22T00:26:16;15.50;99.90
3614;DHT22;1821;50.936;6.854;2022-10-22T00:26:58;15.10;99.90
3614;DHT22;1821;50.936;6.854;2022-10-22T00:27:40;15.60;99.90
3614;DHT22;1821;50.936;6.854;2022-10-22T00:28:22;15.20;99.90
3614;DHT22;1821;50.936;6.854;2022-10-22T00:29:04;15.70;99.90
3614;DHT22;1821;50.936;6.854;2022-10-22T00:29:46;15.50;99.90
3614;DHT22;1821;50.936;6.854;2022-10-22T00:30:27;15.40;99.90
3614;DHT22;1821;50.936;6.854;2022-10-22T00:31:09;15.00;99.90
3614;DHT22;1821;50.936;6.854;2022-10-22T00:31:51;15.50;99.90
3614;DHT22;1821;50.936;6.854;2022-10-22T00:32:33;15.10;99.90
3614;DHT22;1821;50.936;6.854;2022-10-22T00:33:14;15.50;99.90
3614;DHT22;1821;50.936;6.854;2022-10-22T00:33:56;15.50;99.90
3614;DHT22;1821;50.936;6.854;2022-10-22T00:34:38;15.20;99.90
3614;DHT22;1821;50.936;6.854;2022-10-22T00:35:19;15.50;99.90
3614;DHT22;1821;50.936;6.854;2022-10-22T00:36:01;15.30;99.90
3614;DHT22;1821;50.936;6.854;2022-10-22T00:36:43;15.40;99.90
3614;DHT22;1821;50.936;6.854;2022-10-22T00:37:25;15.30;99.90
3614;DHT22;1821;50.936;6.854;2022-10-22T00:38:06;15.10;99.90
3614;DHT22;1821;50.936;6.854;2022-10-22T00:38:48;15.60;99.90
3614;DHT22;1821;50.936;6.854;2022-10-22T00:39:30;15.40;99.90
3614;DHT22;1821;50.936;6.854;2022-10-22T00:40:12;15.00;99.90
3614;DHT22;1821;50.936;6.854;2022-10-22T00:40:54;15.30;99.90
3614;DHT22;1821;50.936;6.854;2022-10-22T00:41:36;15.40;99.90
3614;DHT22;1821;50.936;6.854;2022-10-22T00:42:23;15.20;99.90
3614;DHT22;1821;50.936;6.854;2022-10-22T00:43:08;15.10;99.90
3614;DHT22;1821;50.936;6.854;2022-10-22T00:44:03;15.40;99.90
3614;DHT22;1821;50.936;6.854;2022-10-22T00:45:13;15.10;99.90
3614;DHT22;1821;50.936;6.854;2022-10-22T00:45:56;15.00;99.90
3614;DHT22;1821;50.936;6.854;2022-10-22T00:46:37;15.50;99.90
3614;DHT22;1821;50.936;6.854;2022-10-22T00:47:20;15.10;99.90
3614;DHT22;1821;50.936;6.854;2022-10-22T00:48:06;15.10;99.90
3614;DHT22;1821;50.936;6.854;2022-10-22T00:48:50;15.00;99.90
3614;DHT22;1821;50.936;6.854;2022-10-22T00:49:32;15.30;99.90
3614;DHT22;1821;50.936;6.854;2022-10-22T00:51:07;15.10;99.90
3614;DHT22;1821;50.936;6.854;2022-10-22T00:51:49;15.50;99.90
3614;DHT22;1821;50.936;6.854;2022-10-22T00:52:31;15.50;99.90
3614;DHT22;1821;50.936;6.854;2022-10-22T00:53:19;15.50;99.90
3614;DHT22;1821;50.936;6.854;2022-10-22T00:54:05;15.00;99.90
3614;DHT22;1821;50.936;6.854;2022-10-22T00:54:49;15.20;99.90
3614;DHT22;1821;50.936;6.854;2022-10-22T00:55:32;15.30;99.90
3614;DHT22;1821;50.936;6.854;2022-10-22T00:56:14;15.10;99.90
3614;DHT22;1821;50.936;6.854;2022-10-22T00:56:56;15.10;99.90
3614;DHT22;1821;50.936;6.854;2022-10-22T00:57:37;15.20;99.90
3614;DHT22;1821;50.936;6.854;2022-10-22T00:58:22;15.10;99.90
3614;DHT22;1821;50.936;6.854;2022-10-22T00:59:05;15.20;99.90
3614;DHT22;1821;50.936;6.854;2022-10-22T00:59:53;15.50;99.90
3614;DHT22;1821;50.936;6.854;2022-10-22T01:00:36;15.50;99.90
3614;DHT22;1821;50.936;6.854;2022-10-22T01:01:23;15.60;99.90
3614;DHT22;1821;50.936;6.854;2022-10-22T01:02:05;15.40;99.90
3614;DHT22;1821;50.936;6.854;2022-10-22T01:02:49;15.00;99.90
3614;DHT22;1821;50.936;6.854;2022-10-22T01:03:31;15.50;99.90
3614;DHT22;1821;50.936;6.854;2022-10-22T01:04:13;15.30;99.90
3614;DHT22;1821;50.936;6.854;2022-10-22T01:04:55;15.50;99.90
3614;DHT22;1821;50.936;6.854;2022-10-22T01:05:50;15.50;99.90
3614;DHT22;1821;50.936;6.854;2022-10-22T01:06:35;15.10;99.90
3614;DHT22;1821;50.936;6.854;2022-10-22T01:07:20;15.20;99.90
3614;DHT22;1821;50.936;6.854;2022-10-22T01:08:03;15.50;99.90
3614;DHT22;1821;50.936;6.854;2022-10-22T01:09:12;15.10;99.90
3614;DHT22;1821;50.936;6.854;2022-10-22T01:11:55;15.10;99.90
3614;DHT22;1821;50.936;6.854;2022-10-22T01:13:59;15.00;99.90
3614;DHT22;1821;50.936;6.854;2022-10-22T01:15:44;15.20;99.90
3614;DHT22;1821;50.936;6.854;2022-10-22T01:16:53;15.10;99.90
3614;DHT22;1821;50.936;6.854;2022-10-22T01:20:49;15.00;99.90
3614;DHT22;1821;50.936;6.854;2022-10-22T01:21:39;15.00;99.90
3614;DHT22;1821;50.936;6.854;2022-10-22T01:22:33;15.50;99.90
3614;DHT22;1821;50.936;6.854;2022-10-22T01:23:42;15.50;99.90
3614;DHT22;1821;50.936;6.854;2022-10-22T01:24:36;15.50;99.90
3614;DHT22;1821;50.936;6.854;2022-10-22T01:25:34;15.50;99.90
3614;DHT22;1821;50.936;6.854;2022-10-22T01:27:10;15.10;99.90
3614;DHT22;1821;50.936;6.854;2022-10-22T01:28:53;15.60;99.90
3614;DHT22;1821;50.936;6.854;2022-10-22T01:29:42;15.10;99.90
3614;DHT22;1821;50.936;6.854;2022-10-22T01:30:28;15.50;99.90
3614;DHT22;1821;50.936;6.854;2022-10-22T01:31:12;15.30;99.90
3614;DHT22;1821;50.936;6.854;2022-10-22T01:32:00;15.40;99.90
3614;DHT22;1821;50.936;6.854;2022-10-22T01:32:50;15.50;99.90
3614;DHT22;1821;50.936;6.854;2022-10-22T01:33:33;15.50;99.90
3614;DHT22;1821;50.936;6.854;2022-10-22T01:34:16;15.20;99.90
3614;DHT22;1821;50.936;6.854;2022-10-22T01:35:06;15.10;99.90
3614;DHT22;1821;50.936;6.854;2022-10-22T01:35:49;15.10;99.90
3614;DHT22;1821;50.936;6.854;2022-10-22T01:36:34;15.00;99.90
3614;DHT22;1821;50.936;6.854;2022-10-22T01:37:18;15.50;99.90
3614;DHT22;1821;50.936;6.854;2022-10-22T01:38:05;15.40;99.90
3614;DHT22;1821;50.936;6.854;2022-10-22T01:38:50;15.30;99.90
3614;DHT22;1821;50.936;6.854;2022-10-22T01:39:33;15.20;99.90
3614;DHT22;1821;50.936;6.854;2022-10-22T01:40:16;15.20;99.90
3614;DHT22;1821;50.936;6.854;2022-10-22T01:40:58;15.10;99.90
3614;DHT22;1821;50.936;6.854;2022-10-22T01:41:43;15.50;99.90
3614;DHT22;1821;50.936;6.854;2022-10-22T01:42:25;15.10;99.90
3614;DHT22;1821;50.936;6.854;2022-10-22T01:43:09;15.20;99.90
3614;DHT22;1821;50.936;6.854;2022-10-22T01:43:51;15.30;99.90
3614;DHT22;1821;50.936;6.854;2022-10-22T01:44:34;15.50;99.90
3614;DHT22;1821;50.936;6.854;2022-10-22T01:45:21;15.50;99.90
3614;DHT22;1821;50.936;6.854;2022-10-22T01:46:05;15.00;99.90
3614;DHT22;1821;50.936;6.854;2022-10-22T01:46:49;15.10;99.90
3614;DHT22;1821;50.936;6.854;2022-10-22T01:48:00;15.40;99.90
3614;DHT22;1821;50.936;6.854;2022-10-22T01:50:37;15.30;99.90
3614;DHT22;1821;50.936;6.854;2022-10-22T01:53:17;15.30;99.90
3614;DHT22;1821;50.936;6.854;2022-10-22T01:55:18;15.10;99.90
3614;DHT22;1821;50.936;6.854;2022-10-22T01:59:47;15.00;99.90
3614;DHT22;1821;50.936;6.854;2022-10-22T02:00:30;14.80;99.90
3614;DHT22;1821;50.936;6.854;2022-10-22T02:01:32;15.10;99.90
3614;DHT22;1821;50.936;6.854;2022-10-22T02:03:22;15.50;99.90
3614;DHT22;1821;50.936;6.854;2022-10-22T02:05:02;15.60;99.90
3614;DHT22;1821;50.936;6.854;2022-10-22T02:05:48;15.60;99.90
3614;DHT22;1821;50.936;6.854;2022-10-22T02:06:32;15.10;99.90
3614;DHT22;1821;50.936;6.854;2022-10-22T02:07:19;15.00;99.90
3614;DHT22;1821;50.936;6.854;2022-10-22T02:08:09;15.60;99.90
3614;DHT22;1821;50.936;6.854;2022-10-22T02:08:52;15.10;99.90
3614;DHT22;1821;50.936;6.854;2022-10-22T02:09:35;15.40;99.90
3614;DHT22;1821;50.936;6.854;2022-10-22T02:10:19;15.00;99.90
3614;DHT22;1821;50.936;6.854;2022-10-22T02:11:02;15.50;99.90
3614;DHT22;1821;50.936;6.854;2022-10-22T02:11:45;15.40;99.90
3614;DHT22;1821;50.936;6.854;2022-10-22T02:12:29;15.50;99.90
3614;DHT22;1821;50.936;6.854;2022-10-22T02:13:20;15.60;99.90
3614;DHT22;1821;50.936;6.854;2022-10-22T02:14:04;15.70;99.90
3614;DHT22;1821;50.936;6.854;2022-10-22T02:14:48;15.40;99.90
3614;DHT22;1821;50.936;6.854;2022-10-22T02:15:32;15.00;99.90
3614;DHT22;1821;50.936;6.854;2022-10-22T02:16:19;15.60;99.90
3614;DHT22;1821;50.936;6.854;2022-10-22T02:17:02;15.50;99.90
3614;DHT22;1821;50.936;6.854;2022-10-22T02:17:45;15.50;99.90
3614;DHT22;1821;50.936;6.854;2022-10-22T02:18:31;15.50;99.90
3614;DHT22;1821;50.936;6.854;2022-10-22T02:19:27;15.40;99.90
3614;DHT22;1821;50.936;6.854;2022-10-22T02:20:25;15.00;99.90
3614;DHT22;1821;50.936;6.854;2022-10-22T02:21:08;15.50;99.90
3614;DHT22;1821;50.936;6.854;2022-10-22T02:21:50;15.40;99.90
3614;DHT22;1821;50.936;6.854;2022-10-22T02:22:33;15.50;99.90
3614;DHT22;1821;50.936;6.854;2022-10-22T02:23:15;15.30;99.90
3614;DHT22;1821;50.936;6.854;2022-10-22T02:23:57;15.60;99.90
3614;DHT22;1821;50.936;6.854;2022-10-22T02:24:39;15.40;99.90
3614;DHT22;1821;50.936;6.854;2022-10-22T02:25:21;15.00;99.90
3614;DHT22;1821;50.936;6.854;2022-10-22T02:26:20;15.40;99.90
3614;DHT22;1821;50.936;6.854;2022-10-22T02:27:19;15.00;99.90
3614;DHT22;1821;50.936;6.854;2022-10-22T02:28:29;15.00;99.90
3614;DHT22;1821;50.936;6.854;2022-10-22T02:29:54;15.20;99.90
3614;DHT22;1821;50.936;6.854;2022-10-22T02:30:38;14.90;99.90
3614;DHT22;1821;50.936;6.854;2022-10-22T02:31:23;15.10;99.90
3614;DHT22;1821;50.936;6.854;2022-10-22T02:32:08;15.40;99.90
3614;DHT22;1821;50.936;6.854;2022-10-22T02:33:46;15.50;99.90
3614;DHT22;1821;50.936;6.854;2022-10-22T02:34:30;15.10;99.90
3614;DHT22;1821;50.936;6.854;2022-10-22T02:35:14;15.00;99.90
3614;DHT22;1821;50.936;6.854;2022-10-22T02:35:58;15.00;99.90
3614;DHT22;1821;50.936;6.854;2022-10-22T02:36:42;14.80;99.90
3614;DHT22;1821;50.936;6.854;2022-10-22T02:37:30;15.10;99.90
3614;DHT22;1821;50.936;6.854;2022-10-22T02:38:12;15.40;99.90
3614;DHT22;1821;50.936;6.854;2022-10-22T02:38:55;14.90;99.90
3614;DHT22;1821;50.936;6.854;2022-10-22T02:39:38;15.00;99.90
3614;DHT22;1821;50.936;6.854;2022-10-22T02:40:20;15.10;99.90
3614;DHT22;1821;50.936;6.854;2022-10-22T02:41:02;15.30;99.90
3614;DHT22;1821;50.936;6.854;2022-10-22T02:41:44;15.20;99.90
3614;DHT22;1821;50.936;6.854;2022-10-22T02:42:27;15.20;99.90
3614;DHT22;1821;50.936;6.854;2022-10-22T02:43:09;15.10;99.90
3614;DHT22;1821;50.936;6.854;2022-10-22T02:43:54;15.10;99.90
3614;DHT22;1821;50.936;6.854;2022-10-22T02:44:36;15.30;99.90
3614;DHT22;1821;50.936;6.854;2022-10-22T02:45:18;14.80;99.90
3614;DHT22;1821;50.936;6.854;2022-10-22T02:46:00;14.80;99.90
3614;DHT22;1821;50.936;6.854;2022-10-22T02:46:42;15.30;99.90
3614;DHT22;1821;50.936;6.854;2022-10-22T02:47:24;15.40;99.90
3614;DHT22;1821;50.936;6.854;2022-10-22T02:48:06;14.80;99.90
3614;DHT22;1821;50.936;6.854;2022-10-22T02:48:48;14.80;99.90
3614;DHT22;1821;50.936;6.854;2022-10-22T02:49:29;15.10;99.90
3614;DHT22;1821;50.936;6.854;2022-10-22T02:50:11;14.90;99.90
3614;DHT22;1821;50.936;6.854;2022-10-22T02:50:53;15.30;99.90
3614;DHT22;1821;50.936;6.854;2022-10-22T02:51:35;14.70;99.90
3614;DHT22;1821;50.936;6.854;2022-10-22T02:52:16;14.80;99.90
3614;DHT22;1821;50.936;6.854;2022-10-22T02:52:58;15.40;99.90
3614;DHT22;1821;50.936;6.854;2022-10-22T02:53:40;14.70;99.90
3614;DHT22;1821;50.936;6.854;2022-10-22T02:54:22;14.80;99.90
3614;DHT22;1821;50.936;6.854;2022-10-22T02:55:04;15.10;99.90
3614;DHT22;1821;50.936;6.854;2022-10-22T02:55:46;14.70;99.90
3614;DHT22;1821;50.936;6.854;2022-10-22T02:56:28;15.20;99.90
3614;DHT22;1821;50.936;6.854;2022-10-22T02:57:10;14.90;99.90
3614;DHT22;1821;50.936;6.854;2022-10-22T02:57:51;14.70;99.90
3614;DHT22;1821;50.936;6.854;2022-10-22T02:58:33;15.30;99.90
3614;DHT22;1821;50.936;6.854;2022-10-22T02:59:15;15.20;99.90
3614;DHT22;1821;50.936;6.854;2022-10-22T02:59:56;15.30;99.90
3614;DHT22;1821;50.936;6.854;2022-10-22T03:00:38;15.10;99.90
3614;DHT22;1821;50.936;6.854;2022-10-22T03:01:20;15.30;99.90
3614;DHT22;1821;50.936;6.854;2022-10-22T03:02:02;15.20;99.90
3614;DHT22;1821;50.936;6.854;2022-10-22T03:02:43;15.20;99.90
3614;DHT22;1821;50.936;6.854;2022-10-22T03:03:25;15.20;99.90
3614;DHT22;1821;50.936;6.854;2022-10-22T03:04:07;15.00;99.90
3614;DHT22;1821;50.936;6.854;2022-10-22T03:04:49;15.30;99.90
3614;DHT22;1821;50.936;6.854;2022-10-22T03:05:30;15.10;99.90
3614;DHT22;1821;50.936;6.854;2022-10-22T03:06:12;14.70;99.90
3614;DHT22;1821;50.936;6.854;2022-10-22T03:06:54;15.20;99.90
3614;DHT22;1821;50.936;6.854;2022-10-22T03:07:35;15.30;99.90
3614;DHT22;1821;50.936;6.854;2022-10-22T03:08:18;14.70;99.90
3614;DHT22;1821;50.936;6.854;2022-10-22T03:09:00;14.70;99.90
3614;DHT22;1821;50.936;6.854;2022-10-22T03:09:41;14.70;99.90
3614;DHT22;1821;50.936;6.854;2022-10-22T03:10:23;14.80;99.90
3614;DHT22;1821;50.936;6.854;2022-10-22T03:11:05;14.90;99.90
3614;DHT22;1821;50.936;6.854;2022-10-22T03:11:47;14.80;99.90
3614;DHT22;1821;50.936;6.854;2022-10-22T03:12:28;15.10;99.90
3614;DHT22;1821;50.936;6.854;2022-10-22T03:13:10;15.20;99.90
3614;DHT22;1821;50.936;6.854;2022-10-22T03:13:52;14.70;99.90
3614;DHT22;1821;50.936;6.854;2022-10-22T03:14:34;14.70;99.90
3614;DHT22;1821;50.936;6.854;2022-10-22T03:15:16;15.20;99.90
3614;DHT22;1821;50.936;6.854;2022-10-22T03:15:58;15.20;99.90
3614;DHT22;1821;50.936;6.854;2022-10-22T03:16:39;15.10;99.90
3614;DHT22;1821;50.936;6.854;2022-10-22T03:17:21;15.20;99.90
3614;DHT22;1821;50.936;6.854;2022-10-22T03:18:03;15.20;99.90
3614;DHT22;1821;50.936;6.854;2022-10-22T03:18:44;14.80;99.90
3614;DHT22;1821;50.936;6.854;2022-10-22T03:19:26;15.10;99.90
3614;DHT22;1821;50.936;6.854;2022-10-22T03:20:08;15.20;99.90
3614;DHT22;1821;50.936;6.854;2022-10-22T03:20:57;14.80;99.90
3614;DHT22;1821;50.936;6.854;2022-10-22T03:21:52;14.90;99.90
3614;DHT22;1821;50.936;6.854;2022-10-22T03:22:35;15.00;99.90
3614;DHT22;1821;50.936;6.854;2022-10-22T03:23:19;14.90;99.90
3614;DHT22;1821;50.936;6.854;2022-10-22T03:24:04;14.90;99.90
3614;DHT22;1821;50.936;6.854;2022-10-22T03:24:51;14.70;99.90
3614;DHT22;1821;50.936;6.854;2022-10-22T03:25:34;14.90;99.90
3614;DHT22;1821;50.936;6.854;2022-10-22T03:26:16;14.90;99.90
3614;DHT22;1821;50.936;6.854;2022-10-22T03:26:58;14.90;99.90
3614;DHT22;1821;50.936;6.854;2022-10-22T03:27:40;14.90;99.90
3614;DHT22;1821;50.936;6.854;2022-10-22T03:28:23;14.90;99.90
3614;DHT22;1821;50.936;6.854;2022-10-22T03:29:05;14.70;99.90
3614;DHT22;1821;50.936;6.854;2022-10-22T03:29:49;14.70;99.90
3614;DHT22;1821;50.936;6.854;2022-10-22T03:30:31;15.00;99.90
3614;DHT22;1821;50.936;6.854;2022-10-22T03:31:14;15.00;99.90
3614;DHT22;1821;50.936;6.854;2022-10-22T03:31:55;15.00;99.90
3614;DHT22;1821;50.936;6.854;2022-10-22T03:32:37;15.10;99.90
3614;DHT22;1821;50.936;6.854;2022-10-22T03:33:19;15.20;99.90
3614;DHT22;1821;50.936;6.854;2022-10-22T03:34:00;14.60;99.90
3614;DHT22;1821;50.936;6.854;2022-10-22T03:34:42;15.30;99.90
3614;DHT22;1821;50.936;6.854;2022-10-22T03:35:24;14.80;99.90
3614;DHT22;1821;50.936;6.854;2022-10-22T03:36:07;14.80;99.90
3614;DHT22;1821;50.936;6.854;2022-10-22T03:36:50;14.70;99.90
3614;DHT22;1821;50.936;6.854;2022-10-22T03:37:32;14.70;99.90
3614;DHT22;1821;50.936;6.854;2022-10-22T03:38:14;15.20;99.90
3614;DHT22;1821;50.936;6.854;2022-10-22T03:38:57;15.20;99.90
3614;DHT22;1821;50.936;6.854;2022-10-22T03:39:39;14.80;99.90
3614;DHT22;1821;50.936;6.854;2022-10-22T03:40:21;15.00;99.90
3614;DHT22;1821;50.936;6.854;2022-10-22T03:41:03;14.40;99.90
3614;DHT22;1821;50.936;6.854;2022-10-22T03:41:46;14.80;99.90
3614;DHT22;1821;50.936;6.854;2022-10-22T03:42:28;14.80;99.90
3614;DHT22;1821;50.936;6.854;2022-10-22T03:43:10;15.20;99.90
3614;DHT22;1821;50.936;6.854;2022-10-22T03:43:53;14.70;99.90
3614;DHT22;1821;50.936;6.854;2022-10-22T03:44:36;15.30;99.90
3614;DHT22;1821;50.936;6.854;2022-10-22T03:45:18;15.10;99.90
3614;DHT22;1821;50.936;6.854;2022-10-22T03:46:00;14.70;99.90
3614;DHT22;1821;50.936;6.854;2022-10-22T03:46:42;15.00;99.90
3614;DHT22;1821;50.936;6.854;2022-10-22T03:47:23;14.70;99.90
3614;DHT22;1821;50.936;6.854;2022-10-22T03:48:05;14.80;99.90
3614;DHT22;1821;50.936;6.854;2022-10-22T03:48:47;14.60;99.90
3614;DHT22;1821;50.936;6.854;2022-10-22T03:49:28;14.70;99.90
3614;DHT22;1821;50.936;6.854;2022-10-22T03:50:10;14.80;99.90
3614;DHT22;1821;50.936;6.854;2022-10-22T03:50:52;14.90;99.90
3614;DHT22;1821;50.936;6.854;2022-10-22T03:51:34;15.00;99.90
3614;DHT22;1821;50.936;6.854;2022-10-22T03:52:16;15.00;99.90
3614;DHT22;1821;50.936;6.854;2022-10-22T03:52:58;15.20;99.90
3614;DHT22;1821;50.936;6.854;2022-10-22T03:53:40;14.80;99.90
3614;DHT22;1821;50.936;6.854;2022-10-22T03:54:21;15.30;99.90
3614;DHT22;1821;50.936;6.854;2022-10-22T03:55:04;14.60;99.90
3614;DHT22;1821;50.936;6.854;2022-10-22T03:55:46;14.70;99.90
3614;DHT22;1821;50.936;6.854;2022-10-22T03:56:28;15.20;99.90
3614;DHT22;1821;50.936;6.854;2022-10-22T03:57:10;14.90;99.90
3614;DHT22;1821;50.936;6.854;2022-10-22T03:57:52;14.60;99.90
3614;DHT22;1821;50.936;6.854;2022-10-22T03:58:33;15.10;99.90
3614;DHT22;1821;50.936;6.854;2022-10-22T03:59:15;15.20;99.90
3614;DHT22;1821;50.936;6.854;2022-10-22T03:59:57;14.70;99.90
3614;DHT22;1821;50.936;6.854;2022-10-22T04:00:38;15.00;99.90
3614;DHT22;1821;50.936;6.854;2022-10-22T04:01:20;15.00;99.90
3614;DHT22;1821;50.936;6.854;2022-10-22T04:02:02;15.10;99.90
3614;DHT22;1821;50.936;6.854;2022-10-22T04:02:44;15.00;99.90
3614;DHT22;1821;50.936;6.854;2022-10-22T04:03:25;15.00;99.90
3614;DHT22;1821;50.936;6.854;2022-10-22T04:04:07;14.50;99.90
3614;DHT22;1821;50.936;6.854;2022-10-22T04:04:49;14.70;99.90
3614;DHT22;1821;50.936;6.854;2022-10-22T04:05:33;15.10;99.90
3614;DHT22;1821;50.936;6.854;2022-10-22T04:06:15;15.00;99.90
3614;DHT22;1821;50.936;6.854;2022-10-22T04:06:57;14.90;99.90
3614;DHT22;1821;50.936;6.854;2022-10-22T04:07:38;15.00;99.90
3614;DHT22;1821;50.936;6.854;2022-10-22T04:08:21;15.10;99.90
3614;DHT22;1821;50.936;6.854;2022-10-22T04:09:02;15.00;99.90
3614;DHT22;1821;50.936;6.854;2022-10-22T04:09:44;14.50;99.90
3614;DHT22;1821;50.936;6.854;2022-10-22T04:10:26;14.90;99.90
3614;DHT22;1821;50.936;6.854;2022-10-22T04:11:08;14.60;99.90
3614;DHT22;1821;50.936;6.854;2022-10-22T04:11:50;15.10;99.90
3614;DHT22;1821;50.936;6.854;2022-10-22T04:12:32;15.00;99.90
3614;DHT22;1821;50.936;6.854;2022-10-22T04:13:13;14.90;99.90
3614;DHT22;1821;50.936;6.854;2022-10-22T04:13:55;14.90;99.90
3614;DHT22;1821;50.936;6.854;2022-10-22T04:14:37;14.70;99.90
3614;DHT22;1821;50.936;6.854;2022-10-22T04:15:18;14.80;99.90
3614;DHT22;1821;50.936;6.854;2022-10-22T04:16:20;14.90;99.90
3614;DHT22;1821;50.936;6.854;2022-10-22T04:17:06;14.90;99.90
3614;DHT22;1821;50.936;6.854;2022-10-22T04:17:48;15.10;99.90
3614;DHT22;1821;50.936;6.854;2022-10-22T04:18:29;14.50;99.90
3614;DHT22;1821;50.936;6.854;2022-10-22T04:19:12;15.20;99.90
3614;DHT22;1821;50.936;6.854;2022-10-22T04:19:54;14.80;99.90
3614;DHT22;1821;50.936;6.854;2022-10-22T04:20:35;14.70;99.90
3614;DHT22;1821;50.936;6.854;2022-10-22T04:21:18;15.00;99.90
3614;DHT22;1821;50.936;6.854;2022-10-22T04:21:59;15.00;99.90
3614;DHT22;1821;50.936;6.854;2022-10-22T04:22:41;14.70;99.90
3614;DHT22;1821;50.936;6.854;2022-10-22T04:23:23;14.40;99.90
3614;DHT22;1821;50.936;6.854;2022-10-22T04:24:04;14.40;99.90
3614;DHT22;1821;50.936;6.854;2022-10-22T04:24:46;14.40;99.90
3614;DHT22;1821;50.936;6.854;2022-10-22T04:25:28;14.50;99.90
3614;DHT22;1821;50.936;6.854;2022-10-22T04:26:10;15.10;99.90
3614;DHT22;1821;50.936;6.854;2022-10-22T04:26:54;14.70;99.90
3614;DHT22;1821;50.936;6.854;2022-10-22T04:27:36;14.40;99.90
3614;DHT22;1821;50.936;6.854;2022-10-22T04:28:18;14.90;99.90
3614;DHT22;1821;50.936;6.854;2022-10-22T04:29:00;14.80;99.90
3614;DHT22;1821;50.936;6.854;2022-10-22T04:29:42;14.70;99.90
3614;DHT22;1821;50.936;6.854;2022-10-22T04:30:23;14.40;99.90
3614;DHT22;1821;50.936;6.854;2022-10-22T04:31:13;14.50;99.90
3614;DHT22;1821;50.936;6.854;2022-10-22T04:31:55;14.50;99.90
3614;DHT22;1821;50.936;6.854;2022-10-22T04:32:36;14.60;99.90
3614;DHT22;1821;50.936;6.854;2022-10-22T04:33:18;14.60;99.90
3614;DHT22;1821;50.936;6.854;2022-10-22T04:34:01;14.20;99.90
3614;DHT22;1821;50.936;6.854;2022-10-22T04:34:42;14.50;99.90
3614;DHT22;1821;50.936;6.854;2022-10-22T04:35:24;14.50;99.90
3614;DHT22;1821;50.936;6.854;2022-10-22T04:36:13;14.80;99.90
3614;DHT22;1821;50.936;6.854;2022-10-22T04:36:55;14.50;99.90
3614;DHT22;1821;50.936;6.854;2022-10-22T04:37:37;14.70;99.90
3614;DHT22;1821;50.936;6.854;2022-10-22T04:38:19;14.50;99.90
3614;DHT22;1821;50.936;6.854;2022-10-22T04:39:02;14.30;99.90
3614;DHT22;1821;50.936;6.854;2022-10-22T04:39:44;14.90;99.90
3614;DHT22;1821;50.936;6.854;2022-10-22T04:40:25;14.40;99.90
3614;DHT22;1821;50.936;6.854;2022-10-22T04:41:18;14.40;99.90
3614;DHT22;1821;50.936;6.854;2022-10-22T04:42:00;14.40;99.90
3614;DHT22;1821;50.936;6.854;2022-10-22T04:42:42;14.30;99.90
3614;DHT22;1821;50.936;6.854;2022-10-22T04:43:24;14.40;99.90
3614;DHT22;1821;50.936;6.854;2022-10-22T04:44:06;14.60;99.90
3614;DHT22;1821;50.936;6.854;2022-10-22T04:44:56;14.40;99.90
3614;DHT22;1821;50.936;6.854;2022-10-22T04:45:38;14.90;99.90
3614;DHT22;1821;50.936;6.854;2022-10-22T04:46:19;14.40;99.90
3614;DHT22;1821;50.936;6.854;2022-10-22T04:47:01;14.40;99.90
3614;DHT22;1821;50.936;6.854;2022-10-22T04:47:43;14.20;99.90
3614;DHT22;1821;50.936;6.854;2022-10-22T04:48:25;14.30;99.90
3614;DHT22;1821;50.936;6.854;2022-10-22T04:49:06;14.20;99.90
3614;DHT22;1821;50.936;6.854;2022-10-22T04:49:48;14.60;99.90
3614;DHT22;1821;50.936;6.854;2022-10-22T04:50:30;14.70;99.90
3614;DHT22;1821;50.936;6.854;2022-10-22T04:51:14;14.10;99.90
3614;DHT22;1821;50.936;6.854;2022-10-22T04:51:57;14.70;99.90
3614;DHT22;1821;50.936;6.854;2022-10-22T04:52:38;14.30;99.90
3614;DHT22;1821;50.936;6.854;2022-10-22T04:53:20;14.20;99.90
3614;DHT22;1821;50.936;6.854;2022-10-22T04:54:02;14.30;99.90
3614;DHT22;1821;50.936;6.854;2022-10-22T04:54:44;14.40;99.90
3614;DHT22;1821;50.936;6.854;2022-10-22T04:55:25;14.20;99.90
3614;DHT22;1821;50.936;6.854;2022-10-22T04:57:02;14.80;99.90
3614;DHT22;1821;50.936;6.854;2022-10-22T04:57:44;14.20;99.90
3614;DHT22;1821;50.936;6.854;2022-10-22T04:58:26;14.90;99.90
3614;DHT22;1821;50.936;6.854;2022-10-22T04:59:09;14.70;99.90
3614;DHT22;1821;50.936;6.854;2022-10-22T04:59:52;14.50;99.90
3614;DHT22;1821;50.936;6.854;2022-10-22T05:00:34;15.00;99.90
3614;DHT22;1821;50.936;6.854;2022-10-22T05:01:22;14.80;99.90
3614;DHT22;1821;50.936;6.854;2022-10-22T05:02:04;14.90;99.90
3614;DHT22;1821;50.936;6.854;2022-10-22T05:02:49;14.30;99.90
3614;DHT22;1821;50.936;6.854;2022-10-22T05:03:31;14.80;99.90
3614;DHT22;1821;50.936;6.854;2022-10-22T05:04:15;14.40;99.90
3614;DHT22;1821;50.936;6.854;2022-10-22T05:04:57;14.40;99.90
3614;DHT22;1821;50.936;6.854;2022-10-22T05:05:39;14.50;99.90
3614;DHT22;1821;50.936;6.854;2022-10-22T05:06:22;14.60;99.90
3614;DHT22;1821;50.936;6.854;2022-10-22T05:07:03;14.10;99.90
3614;DHT22;1821;50.936;6.854;2022-10-22T05:07:45;14.30;99.90
3614;DHT22;1821;50.936;6.854;2022-10-22T05:08:27;14.30;99.90